sensor_id;sensor_type;location;lat;lon;timestamp;temperature;humidity
2899;DHT22;1459;50.864;6.438;2022-08-05T00:01:44;20.00;99.90
2899;DHT22;1459;50.864;6.438;2022-08-05T00:04:11;20.00;99.90
2899;DHT22;1459;50.864;6.438;2022-08-05T00:06:38;20.00;99.90
2899;DHT22;1459;50.864;6.438;2022-08-05T00:09:05;20.00;99.90
2899;DHT22;1459;50.864;6.438;2022-08-05T00:11:32;20.00;99.90
2899;DHT22;1459;50.864;6.438;2022-08-05T00:13:59;20.00;99.90
2899;DHT22;1459;50.864;6.438;2022-08-05T00:16:27;20.00;99.90
2899;DHT22;1459;50.864;6.438;2022-08-05T00:18:54;20.00;99.90
2899;DHT22;1459;50.864;6.438;2022-08-05T00:21:21;20.00;99.90
2899;DHT22;1459;50.864;6.438;2022-08-05T00:23:49;20.00;99.90
2899;DHT22;1459;50.864;6.438;2022-08-05T00:26:16;20.00;99.90
2899;DHT22;1459;50.864;6.438;2022-08-05T00:28:44;20.00;99.90
2899;DHT22;1459;50.864;6.438;2022-08-05T00:31:12;20.00;99.90
2899;DHT22;1459;50.864;6.438;2022-08-05T00:33:40;20.00;99.90
2899;DHT22;1459;50.864;6.438;2022-08-05T00:36:07;20.00;99.90
2899;DHT22;1459;50.864;6.438;2022-08-05T00:38:34;20.00;99.90
2899;DHT22;1459;50.864;6.438;2022-08-05T00:41:03;20.00;99.90
2899;DHT22;1459;50.864;6.438;2022-08-05T00:43:32;19.90;99.90
2899;DHT22;1459;50.864;6.438;2022-08-05T00:45:59;19.90;99.90
2899;DHT22;1459;50.864;6.438;2022-08-05T00:48:26;19.90;99.90
2899;DHT22;1459;50.864;6.438;2022-08-05T00:50:55;19.90;99.90
2899;DHT22;1459;50.864;6.438;2022-08-05T00:53:22;19.90;99.90
2899;DHT22;1459;50.864;6.438;2022-08-05T00:55:49;19.90;99.90
2899;DHT22;1459;50.864;6.438;2022-08-05T00:58:17;19.90;99.90
2899;DHT22;1459;50.864;6.438;2022-08-05T01:00:44;19.80;99.90
2899;DHT22;1459;50.864;6.438;2022-08-05T01:03:12;19.80;99.90
2899;DHT22;1459;50.864;6.438;2022-08-05T01:05:39;19.90;99.90
2899;DHT22;1459;50.864;6.438;2022-08-05T01:08:10;19.90;99.90
2899;DHT22;1459;50.864;6.438;2022-08-05T01:10:42;19.90;99.90
2899;DHT22;1459;50.864;6.438;2022-08-05T01:13:18;19.90;99.90
2899;DHT22;1459;50.864;6.438;2022-08-05T01:15:55;19.90;99.90
2899;DHT22;1459;50.864;6.438;2022-08-05T01:18:31;19.90;99.90
2899;DHT22;1459;50.864;6.438;2022-08-05T01:21:15;19.90;99.90
2899;DHT22;1459;50.864;6.438;2022-08-05T01:24:00;19.90;99.90
2899;DHT22;1459;50.864;6.438;2022-08-05T01:26:43;20.00;99.90
2899;DHT22;1459;50.864;6.438;2022-08-05T01:29:20;19.90;99.90
2899;DHT22;1459;50.864;6.438;2022-08-05T01:31:53;19.90;99.90
2899;DHT22;1459;50.864;6.438;2022-08-05T01:34:23;19.90;99.90
2899;DHT22;1459;50.864;6.438;2022-08-05T01:36:54;19.90;99.90
2899;DHT22;1459;50.864;6.438;2022-08-05T01:39:24;19.90;99.90
2899;DHT22;1459;50.864;6.438;2022-08-05T01:41:53;19.90;99.90
2899;DHT22;1459;50.864;6.438;2022-08-05T01:44:24;19.90;99.90
2899;DHT22;1459;50.864;6.438;2022-08-05T01:46:51;19.90;99.90
2899;DHT22;1459;50.864;6.438;2022-08-05T01:49:21;19.90;99.90
2899;DHT22;1459;50.864;6.438;2022-08-05T01:51:49;19.90;99.90
2899;DHT22;1459;50.864;6.438;2022-08-05T01:54:18;19.80;99.90
2899;DHT22;1459;50.864;6.438;2022-08-05T01:56:48;19.90;99.90
2899;DHT22;1459;50.864;6.438;2022-08-05T01:59:20;19.90;99.90
2899;DHT22;1459;50.864;6.438;2022-08-05T02:01:53;19.80;99.90
2899;DHT22;1459;50.864;6.438;2022-08-05T02:04:23;19.80;99.90
2899;DHT22;1459;50.864;6.438;2022-08-05T02:06:52;19.80;99.90
2899;DHT22;1459;50.864;6.438;2022-08-05T02:11:50;19.70;99.90
2899;DHT22;1459;50.864;6.438;2022-08-05T02:14:25;19.30;99.90
2899;DHT22;1459;50.864;6.438;2022-08-05T02:16:56;19.10;99.90
2899;DHT22;1459;50.864;6.438;2022-08-05T02:22:00;18.90;99.90
2899;DHT22;1459;50.864;6.438;2022-08-05T02:24:33;18.70;99.90
2899;DHT22;1459;50.864;6.438;2022-08-05T02:27:05;18.60;99.90
2899;DHT22;1459;50.864;6.438;2022-08-05T02:29:35;18.60;99.90
2899;DHT22;1459;50.864;6.438;2022-08-05T02:32:07;18.60;99.90
2899;DHT22;1459;50.864;6.438;2022-08-05T02:34:36;18.60;99.90
2899;DHT22;1459;50.864;6.438;2022-08-05T02:37:07;18.60;99.90
2899;DHT22;1459;50.864;6.438;2022-08-05T02:39:37;18.50;99.90
2899;DHT22;1459;50.864;6.438;2022-08-05T02:42:07;18.50;99.90
2899;DHT22;1459;50.864;6.438;2022-08-05T02:44:36;18.50;99.90
2899;DHT22;1459;50.864;6.438;2022-08-05T02:47:07;18.40;99.90
2899;DHT22;1459;50.864;6.438;2022-08-05T02:49:36;18.40;99.90
2899;DHT22;1459;50.864;6.438;2022-08-05T02:52:06;18.40;99.90
2899;DHT22;1459;50.864;6.438;2022-08-05T02:54:36;18.50;99.90
2899;DHT22;1459;50.864;6.438;2022-08-05T02:57:06;18.50;99.90
2899;DHT22;1459;50.864;6.438;2022-08-05T02:59:34;18.50;99.90
2899;DHT22;1459;50.864;6.438;2022-08-05T03:02:02;18.50;99.90
2899;DHT22;1459;50.864;6.438;2022-08-05T03:04:31;18.60;99.90
2899;DHT22;1459;50.864;6.438;2022-08-05T03:06:58;18.70;99.90
2899;DHT22;1459;50.864;6.438;2022-08-05T03:09:26;18.70;99.90
2899;DHT22;1459;50.864;6.438;2022-08-05T03:11:53;18.80;99.90
2899;DHT22;1459;50.864;6.438;2022-08-05T03:14:20;18.80;99.90
2899;DHT22;1459;50.864;6.438;2022-08-05T03:16:50;18.80;99.90
2899;DHT22;1459;50.864;6.438;2022-08-05T03:19:17;18.80;99.90
2899;DHT22;1459;50.864;6.438;2022-08-05T03:21:45;18.80;99.90
2899;DHT22;1459;50.864;6.438;2022-08-05T03:24:12;18.80;99.90
2899;DHT22;1459;50.864;6.438;2022-08-05T03:26:40;18.70;99.90
2899;DHT22;1459;50.864;6.438;2022-08-05T03:29:07;18.80;99.90
2899;DHT22;1459;50.864;6.438;2022-08-05T03:31:34;18.80;99.90
2899;DHT22;1459;50.864;6.438;2022-08-05T03:34:02;18.80;99.90
2899;DHT22;1459;50.864;6.438;2022-08-05T03:36:31;18.80;99.90
2899;DHT22;1459;50.864;6.438;2022-08-05T03:39:06;18.90;99.90
2899;DHT22;1459;50.864;6.438;2022-08-05T03:41:34;18.90;99.90
2899;DHT22;1459;50.864;6.438;2022-08-05T03:44:01;19.00;99.90
2899;DHT22;1459;50.864;6.438;2022-08-05T03:46:28;19.00;99.90
2899;DHT22;1459;50.864;6.438;2022-08-05T03:48:55;19.00;99.90
2899;DHT22;1459;50.864;6.438;2022-08-05T03:51:29;19.00;99.90
2899;DHT22;1459;50.864;6.438;2022-08-05T03:54:04;19.10;99.90
2899;DHT22;1459;50.864;6.438;2022-08-05T03:56:40;19.10;99.90
2899;DHT22;1459;50.864;6.438;2022-08-05T03:59:09;19.10;99.90
2899;DHT22;1459;50.864;6.438;2022-08-05T04:01:43;19.10;99.90
2899;DHT22;1459;50.864;6.438;2022-08-05T04:04:12;19.10;99.90
2899;DHT22;1459;50.864;6.438;2022-08-05T04:06:39;19.00;99.90
2899;DHT22;1459;50.864;6.438;2022-08-05T04:09:07;18.90;99.90
2899;DHT22;1459;50.864;6.438;2022-08-05T04:11:36;18.80;99.90
2899;DHT22;1459;50.864;6.438;2022-08-05T04:14:03;18.80;99.90
2899;DHT22;1459;50.864;6.438;2022-08-05T04:16:32;18.70;99.90
2899;DHT22;1459;50.864;6.438;2022-08-05T04:19:00;18.70;99.90
2899;DHT22;1459;50.864;6.438;2022-08-05T04:21:27;18.70;99.90
2899;DHT22;1459;50.864;6.438;2022-08-05T04:23:54;18.70;99.90
2899;DHT22;1459;50.864;6.438;2022-08-05T04:26:26;18.70;99.90
2899;DHT22;1459;50.864;6.438;2022-08-05T04:28:54;18.60;99.90
2899;DHT22;1459;50.864;6.438;2022-08-05T04:31:21;18.60;99.90
2899;DHT22;1459;50.864;6.438;2022-08-05T04:33:48;18.60;99.90
2899;DHT22;1459;50.864;6.438;2022-08-05T04:36:15;18.60;99.90
2899;DHT22;1459;50.864;6.438;2022-08-05T04:38:43;18.60;99.90
2899;DHT22;1459;50.864;6.438;2022-08-05T04:41:10;18.70;99.90
2899;DHT22;1459;50.864;6.438;2022-08-05T04:43:38;18.70;99.90
2899;DHT22;1459;50.864;6.438;2022-08-05T04:46:07;18.80;99.90
2899;DHT22;1459;50.864;6.438;2022-08-05T04:48:34;18.80;99.90
2899;DHT22;1459;50.864;6.438;2022-08-05T04:51:03;18.80;99.90
2899;DHT22;1459;50.864;6.438;2022-08-05T04:53:31;18.80;99.90
2899;DHT22;1459;50.864;6.438;2022-08-05T04:55:58;18.80;99.90
2899;DHT22;1459;50.864;6.438;2022-08-05T04:58:25;18.80;99.90
2899;DHT22;1459;50.864;6.438;2022-08-05T05:00:53;18.90;99.90
2899;DHT22;1459;50.864;6.438;2022-08-05T05:03:22;19.00;99.90
2899;DHT22;1459;50.864;6.438;2022-08-05T05:05:49;18.90;99.90
2899;DHT22;1459;50.864;6.438;2022-08-05T05:08:16;19.00;99.90
2899;DHT22;1459;50.864;6.438;2022-08-05T05:10:44;19.00;99.90
2899;DHT22;1459;50.864;6.438;2022-08-05T05:13:12;19.00;99.90
2899;DHT22;1459;50.864;6.438;2022-08-05T05:15:40;19.00;99.90
2899;DHT22;1459;50.864;6.438;2022-08-05T05:18:08;19.00;99.90
2899;DHT22;1459;50.864;6.438;2022-08-05T05:20:37;19.00;99.90
2899;DHT22;1459;50.864;6.438;2022-08-05T05:23:03;19.00;99.90
2899;DHT22;1459;50.864;6.438;2022-08-05T05:25:31;19.00;99.90
2899;DHT22;1459;50.864;6.438;2022-08-05T05:27:58;19.00;99.90
2899;DHT22;1459;50.864;6.438;2022-08-05T05:30:25;19.00;99.90
2899;DHT22;1459;50.864;6.438;2022-08-05T05:32:53;18.90;99.90
2899;DHT22;1459;50.864;6.438;2022-08-05T05:35:20;18.90;99.90
2899;DHT22;1459;50.864;6.438;2022-08-05T05:37:51;18.90;99.90
2899;DHT22;1459;50.864;6.438;2022-08-05T05:40:20;19.00;99.90
2899;DHT22;1459;50.864;6.438;2022-08-05T05:42:47;19.00;99.90
2899;DHT22;1459;50.864;6.438;2022-08-05T05:45:15;19.00;99.90
2899;DHT22;1459;50.864;6.438;2022-08-05T05:47:46;19.00;99.90
2899;DHT22;1459;50.864;6.438;2022-08-05T05:50:14;19.00;99.90
2899;DHT22;1459;50.864;6.438;2022-08-05T05:52:42;18.90;99.90
2899;DHT22;1459;50.864;6.438;2022-08-05T05:55:12;18.90;99.90
2899;DHT22;1459;50.864;6.438;2022-08-05T05:57:41;19.00;99.90
2899;DHT22;1459;50.864;6.438;2022-08-05T06:00:11;19.00;99.90
2899;DHT22;1459;50.864;6.438;2022-08-05T06:02:39;19.00;99.90
2899;DHT22;1459;50.864;6.438;2022-08-05T06:05:07;19.00;99.90
2899;DHT22;1459;50.864;6.438;2022-08-05T06:07:34;19.00;99.90
2899;DHT22;1459;50.864;6.438;2022-08-05T06:10:04;18.90;99.90
2899;DHT22;1459;50.864;6.438;2022-08-05T06:12:34;18.90;99.90
2899;DHT22;1459;50.864;6.438;2022-08-05T06:15:02;18.90;99.90
2899;DHT22;1459;50.864;6.438;2022-08-05T06:17:29;18.90;99.90
2899;DHT22;1459;50.864;6.438;2022-08-05T06:19:56;18.90;99.90
2899;DHT22;1459;50.864;6.438;2022-08-05T06:22:26;18.90;99.90
2899;DHT22;1459;50.864;6.438;2022-08-05T06:24:53;18.90;99.90
2899;DHT22;1459;50.864;6.438;2022-08-05T06:27:20;18.90;99.90
2899;DHT22;1459;50.864;6.438;2022-08-05T06:29:49;18.90;99.90
2899;DHT22;1459;50.864;6.438;2022-08-05T06:32:18;18.90;99.90
2899;DHT22;1459;50.864;6.438;2022-08-05T06:34:45;18.90;99.90
2899;DHT22;1459;50.864;6.438;2022-08-05T06:37:12;19.00;99.90
2899;DHT22;1459;50.864;6.438;2022-08-05T06:39:39;19.00;99.90
2899;DHT22;1459;50.864;6.438;2022-08-05T06:42:06;19.10;99.90
2899;DHT22;1459;50.864;6.438;2022-08-05T06:44:33;19.10;99.90
2899;DHT22;1459;50.864;6.438;2022-08-05T06:47:02;19.10;99.90
2899;DHT22;1459;50.864;6.438;2022-08-05T06:49:29;19.20;99.90
2899;DHT22;1459;50.864;6.438;2022-08-05T06:51:56;19.20;99.90
2899;DHT22;1459;50.864;6.438;2022-08-05T06:54:26;19.20;99.90
2899;DHT22;1459;50.864;6.438;2022-08-05T06:56:53;19.20;99.90
2899;DHT22;1459;50.864;6.438;2022-08-05T06:59:20;19.10;99.90
2899;DHT22;1459;50.864;6.438;2022-08-05T07:01:47;19.10;99.90
2899;DHT22;1459;50.864;6.438;2022-08-05T07:04:15;19.10;99.90
2899;DHT22;1459;50.864;6.438;2022-08-05T07:06:42;19.00;99.90
2899;DHT22;1459;50.864;6.438;2022-08-05T07:09:09;18.90;99.90
2899;DHT22;1459;50.864;6.438;2022-08-05T07:11:37;18.80;99.90
2899;DHT22;1459;50.864;6.438;2022-08-05T07:14:04;18.80;99.90
2899;DHT22;1459;50.864;6.438;2022-08-05T07:16:48;18.70;99.90
2899;DHT22;1459;50.864;6.438;2022-08-05T07:19:18;18.70;99.90
2899;DHT22;1459;50.864;6.438;2022-08-05T07:21:46;18.60;99.90
2899;DHT22;1459;50.864;6.438;2022-08-05T07:24:15;18.60;99.90
2899;DHT22;1459;50.864;6.438;2022-08-05T07:26:44;18.60;99.90
2899;DHT22;1459;50.864;6.438;2022-08-05T07:29:12;18.60;99.90
2899;DHT22;1459;50.864;6.438;2022-08-05T07:31:39;18.50;99.90
2899;DHT22;1459;50.864;6.438;2022-08-05T07:34:07;18.50;99.90
2899;DHT22;1459;50.864;6.438;2022-08-05T07:36:38;18.50;99.90
2899;DHT22;1459;50.864;6.438;2022-08-05T07:39:06;18.40;99.90
2899;DHT22;1459;50.864;6.438;2022-08-05T07:41:34;18.40;99.90
2899;DHT22;1459;50.864;6.438;2022-08-05T07:44:02;18.30;99.90
2899;DHT22;1459;50.864;6.438;2022-08-05T07:46:31;18.30;99.90
2899;DHT22;1459;50.864;6.438;2022-08-05T07:48:59;18.30;99.90
2899;DHT22;1459;50.864;6.438;2022-08-05T07:51:27;18.30;99.90
2899;DHT22;1459;50.864;6.438;2022-08-05T07:53:55;18.30;99.90
2899;DHT22;1459;50.864;6.438;2022-08-05T07:56:22;18.10;99.90
2899;DHT22;1459;50.864;6.438;2022-08-05T07:58:49;18.10;99.90
2899;DHT22;1459;50.864;6.438;2022-08-05T08:01:16;18.00;99.90
2899;DHT22;1459;50.864;6.438;2022-08-05T08:03:43;17.90;99.90
2899;DHT22;1459;50.864;6.438;2022-08-05T08:06:10;18.00;99.90
2899;DHT22;1459;50.864;6.438;2022-08-05T08:08:37;17.90;99.90
2899;DHT22;1459;50.864;6.438;2022-08-05T08:11:06;17.90;99.90
2899;DHT22;1459;50.864;6.438;2022-08-05T08:13:33;17.80;99.90
2899;DHT22;1459;50.864;6.438;2022-08-05T08:16:00;17.80;99.90
2899;DHT22;1459;50.864;6.438;2022-08-05T08:18:27;17.80;99.90
2899;DHT22;1459;50.864;6.438;2022-08-05T08:20:54;17.70;99.90
2899;DHT22;1459;50.864;6.438;2022-08-05T08:23:21;17.80;99.90
2899;DHT22;1459;50.864;6.438;2022-08-05T08:25:48;17.70;99.90
2899;DHT22;1459;50.864;6.438;2022-08-05T08:28:16;17.70;99.90
2899;DHT22;1459;50.864;6.438;2022-08-05T08:30:43;17.70;99.90
2899;DHT22;1459;50.864;6.438;2022-08-05T08:33:11;17.70;99.90
2899;DHT22;1459;50.864;6.438;2022-08-05T08:35:38;17.70;99.90
2899;DHT22;1459;50.864;6.438;2022-08-05T08:38:05;17.60;99.90
2899;DHT22;1459;50.864;6.438;2022-08-05T08:40:35;17.60;99.90
2899;DHT22;1459;50.864;6.438;2022-08-05T08:43:03;17.60;99.90
2899;DHT22;1459;50.864;6.438;2022-08-05T08:45:32;17.50;99.90
2899;DHT22;1459;50.864;6.438;2022-08-05T08:48:00;17.50;99.90
2899;DHT22;1459;50.864;6.438;2022-08-05T08:50:30;17.50;99.90
2899;DHT22;1459;50.864;6.438;2022-08-05T08:53:01;17.50;99.90
2899;DHT22;1459;50.864;6.438;2022-08-05T08:55:29;17.60;99.90
2899;DHT22;1459;50.864;6.438;2022-08-05T08:57:57;17.70;99.90
2899;DHT22;1459;50.864;6.438;2022-08-05T09:00:25;17.80;99.90
2899;DHT22;1459;50.864;6.438;2022-08-05T09:02:54;17.80;99.90
2899;DHT22;1459;50.864;6.438;2022-08-05T09:05:22;17.80;99.90
2899;DHT22;1459;50.864;6.438;2022-08-05T09:07:50;17.80;99.90
2899;DHT22;1459;50.864;6.438;2022-08-05T09:10:17;17.80;99.90
2899;DHT22;1459;50.864;6.438;2022-08-05T09:12:44;17.80;99.90
2899;DHT22;1459;50.864;6.438;2022-08-05T09:15:11;17.70;99.90
2899;DHT22;1459;50.864;6.438;2022-08-05T09:17:39;17.70;99.90
2899;DHT22;1459;50.864;6.438;2022-08-05T09:20:10;17.70;99.90
2899;DHT22;1459;50.864;6.438;2022-08-05T09:23:03;17.60;99.90
2899;DHT22;1459;50.864;6.438;2022-08-05T09:25:31;17.60;99.90
2899;DHT22;1459;50.864;6.438;2022-08-05T09:28:08;17.60;99.90
2899;DHT22;1459;50.864;6.438;2022-08-05T09:30:36;17.50;99.90
2899;DHT22;1459;50.864;6.438;2022-08-05T09:33:03;17.60;99.90
2899;DHT22;1459;50.864;6.438;2022-08-05T09:35:32;17.60;99.90
2899;DHT22;1459;50.864;6.438;2022-08-05T09:37:59;17.60;99.90
2899;DHT22;1459;50.864;6.438;2022-08-05T09:40:30;17.60;99.90
2899;DHT22;1459;50.864;6.438;2022-08-05T09:42:58;17.70;99.90
2899;DHT22;1459;50.864;6.438;2022-08-05T09:45:36;17.70;99.90
2899;DHT22;1459;50.864;6.438;2022-08-05T09:48:20;17.70;99.90
2899;DHT22;1459;50.864;6.438;2022-08-05T09:50:53;17.70;99.90
2899;DHT22;1459;50.864;6.438;2022-08-05T09:53:21;17.80;99.90
2899;DHT22;1459;50.864;6.438;2022-08-05T09:55:54;17.90;99.90
2899;DHT22;1459;50.864;6.438;2022-08-05T09:58:21;18.00;99.90
2899;DHT22;1459;50.864;6.438;2022-08-05T10:00:57;18.20;99.90
2899;DHT22;1459;50.864;6.438;2022-08-05T10:03:24;18.30;99.90
2899;DHT22;1459;50.864;6.438;2022-08-05T10:06:10;18.30;99.90
2899;DHT22;1459;50.864;6.438;2022-08-05T10:08:38;18.20;99.90
2899;DHT22;1459;50.864;6.438;2022-08-05T10:11:13;18.40;99.90
2899;DHT22;1459;50.864;6.438;2022-08-05T10:13:41;18.50;99.90
2899;DHT22;1459;50.864;6.438;2022-08-05T10:16:29;18.60;99.90
2899;DHT22;1459;50.864;6.438;2022-08-05T10:18:57;18.60;99.90
2899;DHT22;1459;50.864;6.438;2022-08-05T10:21:25;18.80;99.90
2899;DHT22;1459;50.864;6.438;2022-08-05T10:23:53;18.90;99.90
2899;DHT22;1459;50.864;6.438;2022-08-05T10:26:23;19.00;99.90
2899;DHT22;1459;50.864;6.438;2022-08-05T10:28:50;19.00;99.90
2899;DHT22;1459;50.864;6.438;2022-08-05T10:31:17;19.00;99.90
2899;DHT22;1459;50.864;6.438;2022-08-05T10:33:44;19.10;99.90
2899;DHT22;1459;50.864;6.438;2022-08-05T10:36:12;19.20;99.90
2899;DHT22;1459;50.864;6.438;2022-08-05T10:38:43;19.40;99.90
2899;DHT22;1459;50.864;6.438;2022-08-05T10:41:16;19.70;99.90
2899;DHT22;1459;50.864;6.438;2022-08-05T10:43:49;19.80;99.90
2899;DHT22;1459;50.864;6.438;2022-08-05T10:46:18;19.90;99.90
2899;DHT22;1459;50.864;6.438;2022-08-05T10:48:46;20.20;99.90
2899;DHT22;1459;50.864;6.438;2022-08-05T10:51:15;20.50;99.90
2899;DHT22;1459;50.864;6.438;2022-08-05T10:53:51;20.60;99.90
2899;DHT22;1459;50.864;6.438;2022-08-05T10:56:21;20.80;99.90
2899;DHT22;1459;50.864;6.438;2022-08-05T10:59:00;20.90;99.90
2899;DHT22;1459;50.864;6.438;2022-08-05T11:01:30;21.10;99.90
2899;DHT22;1459;50.864;6.438;2022-08-05T11:04:09;21.10;99.90
2899;DHT22;1459;50.864;6.438;2022-08-05T11:07:04;21.30;99.90
2899;DHT22;1459;50.864;6.438;2022-08-05T11:09:43;21.40;99.90
2899;DHT22;1459;50.864;6.438;2022-08-05T11:12:43;21.60;99.90
2899;DHT22;1459;50.864;6.438;2022-08-05T11:15:20;21.60;99.90
2899;DHT22;1459;50.864;6.438;2022-08-05T11:17:48;21.60;99.90
2899;DHT22;1459;50.864;6.438;2022-08-05T11:20:36;21.60;99.90
2899;DHT22;1459;50.864;6.438;2022-08-05T11:23:30;21.60;99.90
2899;DHT22;1459;50.864;6.438;2022-08-05T11:28:42;21.90;99.90
2899;DHT22;1459;50.864;6.438;2022-08-05T11:31:24;22.00;99.90
2899;DHT22;1459;50.864;6.438;2022-08-05T11:34:06;22.10;99.90
2899;DHT22;1459;50.864;6.438;2022-08-05T11:36:44;22.20;99.90
2899;DHT22;1459;50.864;6.438;2022-08-05T11:39:14;22.30;99.90
2899;DHT22;1459;50.864;6.438;2022-08-05T11:41:49;22.10;99.90
2899;DHT22;1459;50.864;6.438;2022-08-05T11:44:19;22.00;99.90
2899;DHT22;1459;50.864;6.438;2022-08-05T11:46:48;22.10;99.90
2899;DHT22;1459;50.864;6.438;2022-08-05T11:49:18;22.10;99.90
2899;DHT22;1459;50.864;6.438;2022-08-05T11:51:47;22.10;99.90
2899;DHT22;1459;50.864;6.438;2022-08-05T11:54:20;22.10;99.90
2899;DHT22;1459;50.864;6.438;2022-08-05T11:56:51;22.00;99.90
2899;DHT22;1459;50.864;6.438;2022-08-05T11:59:21;22.00;99.90
2899;DHT22;1459;50.864;6.438;2022-08-05T12:01:52;22.20;99.90
2899;DHT22;1459;50.864;6.438;2022-08-05T12:04:20;22.30;99.90
2899;DHT22;1459;50.864;6.438;2022-08-05T12:06:47;22.30;99.90
2899;DHT22;1459;50.864;6.438;2022-08-05T12:09:16;22.50;99.90
2899;DHT22;1459;50.864;6.438;2022-08-05T12:11:45;22.70;99.90
2899;DHT22;1459;50.864;6.438;2022-08-05T12:14:13;22.90;99.90
2899;DHT22;1459;50.864;6.438;2022-08-05T12:16:42;22.90;99.90
2899;DHT22;1459;50.864;6.438;2022-08-05T12:19:13;22.80;99.90
2899;DHT22;1459;50.864;6.438;2022-08-05T12:21:45;22.90;99.90
2899;DHT22;1459;50.864;6.438;2022-08-05T12:24:15;23.00;99.90
2899;DHT22;1459;50.864;6.438;2022-08-05T12:26:45;23.10;99.90
2899;DHT22;1459;50.864;6.438;2022-08-05T12:31:44;23.50;99.90
2899;DHT22;1459;50.864;6.438;2022-08-05T12:36:40;24.10;99.90
2899;DHT22;1459;50.864;6.438;2022-08-05T12:39:07;24.10;99.90
2899;DHT22;1459;50.864;6.438;2022-08-05T12:41:36;24.30;99.90
2899;DHT22;1459;50.864;6.438;2022-08-05T12:44:06;24.50;99.90
2899;DHT22;1459;50.864;6.438;2022-08-05T12:49:05;24.90;99.90
2899;DHT22;1459;50.864;6.438;2022-08-05T12:51:43;25.00;99.90
2899;DHT22;1459;50.864;6.438;2022-08-05T12:54:16;25.00;99.90
2899;DHT22;1459;50.864;6.438;2022-08-05T12:56:47;24.80;99.90
2899;DHT22;1459;50.864;6.438;2022-08-05T12:59:17;24.90;99.90
2899;DHT22;1459;50.864;6.438;2022-08-05T13:01:54;25.00;99.90
2899;DHT22;1459;50.864;6.438;2022-08-05T13:04:25;24.90;99.90
2899;DHT22;1459;50.864;6.438;2022-08-05T13:06:55;24.80;99.90
2899;DHT22;1459;50.864;6.438;2022-08-05T13:09:24;25.00;99.90
2899;DHT22;1459;50.864;6.438;2022-08-05T13:12:00;25.10;99.90
2899;DHT22;1459;50.864;6.438;2022-08-05T13:14:35;25.20;99.90
2899;DHT22;1459;50.864;6.438;2022-08-05T13:17:08;25.10;99.90
2899;DHT22;1459;50.864;6.438;2022-08-05T13:19:36;25.10;99.90
2899;DHT22;1459;50.864;6.438;2022-08-05T13:22:03;25.00;99.90
2899;DHT22;1459;50.864;6.438;2022-08-05T13:24:30;24.90;99.90
2899;DHT22;1459;50.864;6.438;2022-08-05T13:26:57;24.90;99.90
2899;DHT22;1459;50.864;6.438;2022-08-05T13:29:24;24.90;99.90
2899;DHT22;1459;50.864;6.438;2022-08-05T13:31:51;24.80;99.90
2899;DHT22;1459;50.864;6.438;2022-08-05T13:34:19;24.80;99.90
2899;DHT22;1459;50.864;6.438;2022-08-05T13:36:46;24.80;99.90
2899;DHT22;1459;50.864;6.438;2022-08-05T13:39:13;24.70;99.90
2899;DHT22;1459;50.864;6.438;2022-08-05T13:41:40;24.50;99.90
2899;DHT22;1459;50.864;6.438;2022-08-05T13:44:07;24.20;99.90
2899;DHT22;1459;50.864;6.438;2022-08-05T13:46:34;23.80;99.90
2899;DHT22;1459;50.864;6.438;2022-08-05T13:49:01;23.30;99.90
2899;DHT22;1459;50.864;6.438;2022-08-05T13:51:32;22.90;99.90
2899;DHT22;1459;50.864;6.438;2022-08-05T13:53:59;22.60;99.90
2899;DHT22;1459;50.864;6.438;2022-08-05T13:56:26;22.40;99.90
2899;DHT22;1459;50.864;6.438;2022-08-05T13:58:53;22.40;99.90
2899;DHT22;1459;50.864;6.438;2022-08-05T14:01:20;22.30;99.90
2899;DHT22;1459;50.864;6.438;2022-08-05T14:03:47;22.20;99.90
2899;DHT22;1459;50.864;6.438;2022-08-05T14:06:30;22.10;99.90
2899;DHT22;1459;50.864;6.438;2022-08-05T14:08:57;22.00;99.90
2899;DHT22;1459;50.864;6.438;2022-08-05T14:11:26;21.90;99.90
2899;DHT22;1459;50.864;6.438;2022-08-05T14:13:54;21.90;99.90
2899;DHT22;1459;50.864;6.438;2022-08-05T14:16:21;21.90;99.90
2899;DHT22;1459;50.864;6.438;2022-08-05T14:18:49;21.90;99.90
2899;DHT22;1459;50.864;6.438;2022-08-05T14:21:16;21.90;99.90
2899;DHT22;1459;50.864;6.438;2022-08-05T14:23:44;22.00;99.90
2899;DHT22;1459;50.864;6.438;2022-08-05T14:26:11;22.10;99.90
2899;DHT22;1459;50.864;6.438;2022-08-05T14:28:38;22.30;99.90
2899;DHT22;1459;50.864;6.438;2022-08-05T14:31:05;22.40;99.90
2899;DHT22;1459;50.864;6.438;2022-08-05T14:33:33;22.60;99.90
2899;DHT22;1459;50.864;6.438;2022-08-05T14:36:00;22.70;99.90
2899;DHT22;1459;50.864;6.438;2022-08-05T14:38:27;22.80;99.90
2899;DHT22;1459;50.864;6.438;2022-08-05T14:40:56;23.00;99.90
2899;DHT22;1459;50.864;6.438;2022-08-05T14:43:23;23.20;99.90
2899;DHT22;1459;50.864;6.438;2022-08-05T14:45:50;23.30;99.90
2899;DHT22;1459;50.864;6.438;2022-08-05T14:48:17;23.30;99.90
2899;DHT22;1459;50.864;6.438;2022-08-05T14:50:44;23.50;99.90
2899;DHT22;1459;50.864;6.438;2022-08-05T14:53:11;23.80;99.90
2899;DHT22;1459;50.864;6.438;2022-08-05T14:55:38;24.30;99.90
2899;DHT22;1459;50.864;6.438;2022-08-05T15:00:35;24.70;99.90
2899;DHT22;1459;50.864;6.438;2022-08-05T15:03:03;25.00;99.90
2899;DHT22;1459;50.864;6.438;2022-08-05T15:05:33;25.10;99.90
2899;DHT22;1459;50.864;6.438;2022-08-05T15:08:02;25.20;99.90
2899;DHT22;1459;50.864;6.438;2022-08-05T15:10:30;25.40;99.90
2899;DHT22;1459;50.864;6.438;2022-08-05T15:12:57;25.60;99.90
2899;DHT22;1459;50.864;6.438;2022-08-05T15:15:26;25.40;99.90
2899;DHT22;1459;50.864;6.438;2022-08-05T15:17:53;25.10;99.90
2899;DHT22;1459;50.864;6.438;2022-08-05T15:20:20;24.80;99.90
2899;DHT22;1459;50.864;6.438;2022-08-05T15:22:48;24.60;99.90
2899;DHT22;1459;50.864;6.438;2022-08-05T15:25:16;24.40;99.90
2899;DHT22;1459;50.864;6.438;2022-08-05T15:27:44;24.20;99.90
2899;DHT22;1459;50.864;6.438;2022-08-05T15:30:12;24.00;99.90
2899;DHT22;1459;50.864;6.438;2022-08-05T15:32:40;23.90;99.90
2899;DHT22;1459;50.864;6.438;2022-08-05T15:35:08;23.90;99.90
2899;DHT22;1459;50.864;6.438;2022-08-05T15:37:38;24.00;99.90
2899;DHT22;1459;50.864;6.438;2022-08-05T15:40:06;24.20;99.90
2899;DHT22;1459;50.864;6.438;2022-08-05T15:42:34;24.40;99.90
2899;DHT22;1459;50.864;6.438;2022-08-05T15:45:02;24.40;99.90
2899;DHT22;1459;50.864;6.438;2022-08-05T15:47:30;24.50;99.90
2899;DHT22;1459;50.864;6.438;2022-08-05T15:49:58;24.50;99.90
2899;DHT22;1459;50.864;6.438;2022-08-05T15:52:25;24.50;99.90
2899;DHT22;1459;50.864;6.438;2022-08-05T15:54:52;24.50;99.90
2899;DHT22;1459;50.864;6.438;2022-08-05T15:57:19;24.50;99.90
2899;DHT22;1459;50.864;6.438;2022-08-05T15:59:46;24.50;99.90
2899;DHT22;1459;50.864;6.438;2022-08-05T16:02:13;24.40;99.90
2899;DHT22;1459;50.864;6.438;2022-08-05T16:04:41;24.30;99.90
2899;DHT22;1459;50.864;6.438;2022-08-05T16:07:09;24.20;99.90
2899;DHT22;1459;50.864;6.438;2022-08-05T16:09:36;24.10;99.90
2899;DHT22;1459;50.864;6.438;2022-08-05T16:12:05;24.00;99.90
2899;DHT22;1459;50.864;6.438;2022-08-05T16:14:33;24.10;99.90
2899;DHT22;1459;50.864;6.438;2022-08-05T16:17:00;24.10;99.90
2899;DHT22;1459;50.864;6.438;2022-08-05T16:19:27;24.00;99.90
2899;DHT22;1459;50.864;6.438;2022-08-05T16:21:55;24.00;99.90
2899;DHT22;1459;50.864;6.438;2022-08-05T16:24:23;23.80;99.90
2899;DHT22;1459;50.864;6.438;2022-08-05T16:26:51;23.70;99.90
2899;DHT22;1459;50.864;6.438;2022-08-05T16:29:19;23.60;99.90
2899;DHT22;1459;50.864;6.438;2022-08-05T16:31:49;23.50;99.90
2899;DHT22;1459;50.864;6.438;2022-08-05T16:34:16;23.40;99.90